Time;durP1;ratioP1;P1;durP2;ratioP2;P2;SDS_P1;SDS_P2;PMS_P1;PMS_P2;Temp;Humidity;BMP_temperature;BMP_pressure;BME280_temperature;BME280_humidity;BME280_pressure;Samples;Min_cycle;Max_cycle;Signal;HPM_P1;HPM_P2
2022/06/18 00:01:48;;;;;;;5.10;1.67;;;;;;;18.00;61.28;101175.44;6051766;28;20533;-67
2022/06/18 00:04:45;;;;;;;7.43;2.20;;;;;;;17.91;61.70;101159.59;6050193;28;20036;-67
2022/06/18 00:07:44;;;;;;;4.50;1.80;;;;;;;17.88;61.65;101158.13;6058232;28;20577;-67
2022/06/18 00:10:39;;;;;;;6.85;1.95;;;;;;;17.92;61.65;101166.63;6055063;28;20087;-67
2022/06/18 00:13:41;;;;;;;5.95;2.10;;;;;;;17.90;61.74;101158.75;6050087;28;20500;-67
2022/06/18 00:16:36;;;;;;;3.97;1.92;;;;;;;17.83;61.78;101152.44;6059928;28;20083;-67
2022/06/18 00:19:31;;;;;;;6.90;2.45;;;;;;;17.97;61.48;101165.06;6054474;28;20030;-67
2022/06/18 00:22:28;;;;;;;7.27;1.97;;;;;;;18.04;60.94;101166.00;6049645;28;20042;-67
2022/06/18 00:25:30;;;;;;;4.95;1.90;;;;;;;17.95;60.62;101155.53;6052241;28;20112;-67
2022/06/18 00:28:28;;;;;;;4.00;2.17;;;;;;;17.93;60.75;101157.56;6054699;28;20045;-67
2022/06/18 00:31:23;;;;;;;3.90;1.60;;;;;;;17.96;60.44;101151.84;6060545;28;20029;-67
2022/06/18 00:34:19;;;;;;;4.57;1.90;;;;;;;17.91;60.53;101148.88;6063072;28;20620;-67
2022/06/18 00:37:16;;;;;;;2.63;1.80;;;;;;;17.91;60.18;101143.50;6055154;28;20033;-67
2022/06/18 00:40:19;;;;;;;3.50;1.60;;;;;;;18.02;59.69;101135.81;6052009;28;20030;-67
2022/06/18 00:43:18;;;;;;;4.60;1.60;;;;;;;17.98;59.29;101128.31;6063396;28;20111;-67
2022/06/18 00:46:40;;;;;;;3.70;1.55;;;;;;;18.00;59.20;101131.66;6056204;28;20038;-67
2022/06/18 00:49:42;;;;;;;4.00;1.83;;;;;;;18.02;58.95;101119.72;6044377;28;20057;-67
2022/06/18 00:52:47;;;;;;;4.95;1.85;;;;;;;17.99;58.92;101127.31;6083021;28;20029;-67
2022/06/18 00:55:48;;;;;;;2.55;1.63;;;;;;;18.12;58.39;101120.28;6051779;28;20037;-67
2022/06/18 00:58:51;;;;;;;3.95;1.73;;;;;;;17.95;58.64;101108.06;6055863;28;20037;-67
2022/06/18 01:01:48;;;;;;;2.85;1.52;;;;;;;17.99;58.51;101109.34;6053549;28;20121;-67
2022/06/18 01:04:44;;;;;;;5.38;1.63;;;;;;;18.13;58.27;101107.66;6053229;28;20034;-67
2022/06/18 01:07:39;;;;;;;2.20;1.40;;;;;;;18.06;57.77;101102.22;6063948;28;20036;-67
2022/06/18 01:10:41;;;;;;;4.17;1.90;;;;;;;18.07;58.11;101108.44;6052379;28;20112;-67
2022/06/18 01:13:38;;;;;;;2.47;1.35;;;;;;;18.06;57.84;101104.06;6078883;28;20076;-67
2022/06/18 01:16:34;;;;;;;3.55;1.88;;;;;;;18.11;57.58;101096.28;6057083;28;20469;-67
2022/06/18 01:19:32;;;;;;;5.13;1.58;;;;;;;18.03;57.52;101099.91;6056228;28;20056;-67
2022/06/18 01:22:33;;;;;;;3.20;1.77;;;;;;;17.98;57.84;101101.47;6052651;28;20026;-67
2022/06/18 01:25:30;;;;;;;2.95;1.60;;;;;;;17.96;58.10;101082.06;6050622;28;20038;-67
2022/06/18 01:28:26;;;;;;;4.55;1.63;;;;;;;18.01;57.93;101085.00;6052341;28;20509;-67
2022/06/18 01:31:21;;;;;;;3.75;1.40;;;;;;;17.99;58.07;101079.00;6051790;28;20109;-67
2022/06/18 01:34:17;;;;;;;2.65;1.60;;;;;;;17.95;58.13;101072.31;6050252;28;20064;-67
2022/06/18 01:37:13;;;;;;;2.88;1.52;;;;;;;17.96;57.75;101069.47;6053409;28;20092;-67
2022/06/18 01:40:12;;;;;;;2.97;1.60;;;;;;;17.98;57.51;101059.38;6059986;28;20030;-67
2022/06/18 01:43:08;;;;;;;2.95;1.50;;;;;;;18.03;57.56;101056.13;6064465;28;20056;-67
2022/06/18 01:46:03;;;;;;;3.20;1.60;;;;;;;18.01;57.77;101068.91;6053003;28;20030;-68
2022/06/18 01:49:02;;;;;;;2.53;1.50;;;;;;;17.93;57.52;101061.78;6067726;28;20121;-67
2022/06/18 01:51:57;;;;;;;2.28;1.50;;;;;;;17.75;57.90;101056.78;6051007;28;20037;-67
2022/06/18 01:54:55;;;;;;;5.07;1.52;;;;;;;17.89;57.77;101051.59;6051359;28;20033;-67
2022/06/18 01:58:02;;;;;;;5.97;1.48;;;;;;;18.05;57.07;101040.66;6054799;28;20037;-67
2022/06/18 02:00:59;;;;;;;4.82;1.60;;;;;;;17.92;57.49;101057.44;6051896;28;20069;-67
2022/06/18 02:03:57;;;;;;;3.95;1.98;;;;;;;17.69;57.46;101038.72;6050926;28;20038;-67
2022/06/18 02:06:54;;;;;;;3.40;1.40;;;;;;;17.69;58.77;101041.41;6056667;28;20046;-66
2022/06/18 02:10:05;;;;;;;3.13;1.50;;;;;;;17.63;58.09;101044.00;6056033;28;20056;-68
2022/06/18 02:13:02;;;;;;;3.45;1.48;;;;;;;17.59;57.90;101035.47;6050347;28;20198;-67
2022/06/18 02:15:58;;;;;;;2.97;1.35;;;;;;;17.58;58.08;101025.75;6049583;28;20041;-67
2022/06/18 02:18:54;;;;;;;2.28;1.35;;;;;;;17.61;58.24;101036.13;6067363;28;20393;-67
2022/06/18 02:21:53;;;;;;;3.42;1.60;;;;;;;17.69;58.09;101029.88;6054063;28;20117;-67
2022/06/18 02:24:48;;;;;;;3.38;1.60;;;;;;;17.71;57.79;101019.78;6052885;28;20501;-68
2022/06/18 02:27:44;;;;;;;3.23;1.70;;;;;;;17.73;58.07;101010.53;6053214;28;20034;-67
2022/06/18 02:30:40;;;;;;;3.95;1.52;;;;;;;17.80;57.91;101014.13;6065254;28;20324;-67
2022/06/18 02:33:39;;;;;;;2.58;1.50;;;;;;;17.79;57.82;101001.75;6054941;28;20109;-68
2022/06/18 02:36:36;;;;;;;2.90;1.30;;;;;;;17.67;57.79;100995.16;6052168;28;20045;-67
2022/06/18 02:39:39;;;;;;;2.00;1.40;;;;;;;17.74;57.83;101009.53;6050317;28;20033;-67
2022/06/18 02:42:34;;;;;;;2.83;1.40;;;;;;;17.81;57.67;101009.59;6071183;28;20498;-67
2022/06/18 02:45:30;;;;;;;2.33;1.45;;;;;;;17.80;57.55;101002.59;6048623;28;20083;-66
2022/06/18 02:48:30;;;;;;;6.97;1.60;;;;;;;17.79;57.53;100996.38;6048217;28;20030;-67
2022/06/18 02:51:26;;;;;;;2.08;1.38;;;;;;;17.82;57.46;100992.50;6047706;28;20029;-67
2022/06/18 02:54:21;;;;;;;2.58;1.23;;;;;;;17.88;57.43;100994.44;6048348;28;20577;-67
2022/06/18 02:57:23;;;;;;;2.77;1.60;;;;;;;17.81;57.90;100993.50;6050716;28;20049;-67
2022/06/18 03:00:18;;;;;;;2.95;1.42;;;;;;;17.77;57.69;100987.66;6053421;28;20029;-67
2022/06/18 03:03:15;;;;;;;6.05;1.52;;;;;;;17.83;57.69;100984.25;6055314;28;20065;-67
2022/06/18 03:06:10;;;;;;;2.72;1.30;;;;;;;17.87;57.29;100992.75;6051494;28;20048;-66
2022/06/18 03:09:06;;;;;;;2.20;1.33;;;;;;;17.91;57.46;100993.22;6072150;28;20034;-68
2022/06/18 03:12:07;;;;;;;2.25;1.35;;;;;;;17.88;57.52;100993.59;6055056;28;20314;-68
2022/06/18 03:15:03;;;;;;;2.75;1.50;;;;;;;17.97;57.23;100998.66;6051839;28;20036;-67
2022/06/18 03:17:59;;;;;;;2.50;1.20;;;;;;;17.96;57.12;100990.81;6055902;28;20030;-67
2022/06/18 03:20:58;;;;;;;2.45;1.42;;;;;;;18.01;57.42;101001.81;6050394;28;20034;-68
2022/06/18 03:23:53;;;;;;;4.50;1.50;;;;;;;18.12;57.13;100995.97;6049596;28;20045;-67
2022/06/18 03:26:48;;;;;;;2.50;1.60;;;;;;;18.09;57.16;100999.03;6052537;28;20033;-67
2022/06/18 03:29:46;;;;;;;3.47;1.60;;;;;;;18.19;56.66;100991.50;6050600;28;20041;-67
2022/06/18 03:32:41;;;;;;;2.45;1.50;;;;;;;18.25;56.55;100982.69;6052821;28;20045;-67
2022/06/18 03:35:38;;;;;;;3.13;1.52;;;;;;;18.35;56.37;100996.63;6054790;28;20048;-67
2022/06/18 03:38:34;;;;;;;5.60;1.50;;;;;;;18.39;56.11;100989.88;6048882;28;20044;-66
2022/06/18 03:41:29;;;;;;;2.22;1.25;;;;;;;18.42;55.81;100978.75;6051914;28;20034;-67
2022/06/18 03:44:25;;;;;;;3.13;1.50;;;;;;;18.48;55.82;100988.75;6049748;28;20032;-67
2022/06/18 03:47:20;;;;;;;2.08;1.33;;;;;;;18.42;56.01;100971.53;6053555;28;20323;-67
2022/06/18 03:50:18;;;;;;;2.20;1.40;;;;;;;18.53;56.35;100983.66;6064068;28;20401;-67
2022/06/18 03:53:13;;;;;;;2.67;1.52;;;;;;;18.55;55.86;100976.25;6049476;28;20034;-67
2022/06/18 03:56:10;;;;;;;1.92;1.20;;;;;;;18.55;56.16;100970.88;6049206;28;20041;-67
2022/06/18 03:59:06;;;;;;;2.00;1.10;;;;;;;18.57;55.96;100971.50;6054686;28;20465;-67
2022/06/18 04:02:01;;;;;;;4.67;1.43;;;;;;;18.57;56.29;100965.28;6049537;28;20034;-67
2022/06/18 04:04:57;;;;;;;4.25;1.38;;;;;;;18.62;56.19;100978.97;6054198;28;20057;-68
2022/06/18 04:07:52;;;;;;;2.40;1.50;;;;;;;18.61;56.30;100975.47;6058876;28;20089;-68
2022/06/18 04:10:47;;;;;;;4.82;1.60;;;;;;;18.63;55.91;100973.44;6053069;28;20181;-67
2022/06/18 04:13:43;;;;;;;2.28;1.35;;;;;;;18.77;56.09;100983.28;6058464;28;20489;-67
2022/06/18 04:16:38;;;;;;;5.87;1.53;;;;;;;18.83;55.83;100982.50;6053998;28;20065;-67
2022/06/18 04:19:33;;;;;;;2.27;1.47;;;;;;;18.97;55.49;100976.22;6063779;28;20033;-68
2022/06/18 04:22:29;;;;;;;2.30;1.30;;;;;;;19.07;54.93;100969.69;6054219;28;20284;-67
2022/06/18 04:25:24;;;;;;;5.83;1.60;;;;;;;19.51;54.30;100978.31;6054013;28;20029;-67
2022/06/18 04:28:20;;;;;;;3.50;1.13;;;;;;;19.95;53.40;100981.44;6065018;28;20538;-67
2022/06/18 04:31:15;;;;;;;1.65;1.20;;;;;;;20.48;51.75;100984.34;6052819;28;20080;-67
2022/06/18 04:34:11;;;;;;;2.75;1.40;;;;;;;20.60;50.95;100980.84;6053334;28;20084;-67
2022/06/18 04:37:06;;;;;;;2.23;1.57;;;;;;;20.75;50.70;100986.88;6054377;28;20060;-67
2022/06/18 04:40:03;;;;;;;1.98;1.38;;;;;;;20.84;50.79;100982.13;6054020;28;20335;-67
2022/06/18 04:43:03;;;;;;;3.85;1.67;;;;;;;21.04;50.47;100982.13;6053829;28;20041;-67
2022/06/18 04:45:58;;;;;;;2.45;1.40;;;;;;;21.01;50.73;100982.56;6052943;28;20038;-67
2022/06/18 04:48:54;;;;;;;2.00;1.43;;;;;;;21.68;49.22;100976.88;6058464;28;20393;-67
2022/06/18 04:51:49;;;;;;;3.20;1.33;;;;;;;21.48;49.05;100973.41;6053110;28;20032;-67
2022/06/18 04:54:44;;;;;;;4.60;1.40;;;;;;;21.39;49.73;100980.06;6053460;28;20041;-67
2022/06/18 04:57:40;;;;;;;3.25;1.10;;;;;;;21.60;50.00;100971.72;6054337;28;20080;-67
2022/06/18 05:00:35;;;;;;;1.57;1.23;;;;;;;22.13;48.49;100973.22;6052425;28;20041;-67
2022/06/18 05:03:31;;;;;;;3.83;1.50;;;;;;;22.06;48.37;100975.13;6062619;28;20744;-68
2022/06/18 05:06:27;;;;;;;3.92;1.60;;;;;;;21.96;48.43;100969.31;6053472;28;20046;-67
2022/06/18 05:09:22;;;;;;;3.23;1.40;;;;;;;22.34;48.62;100981.00;6053725;28;20034;-68
2022/06/18 05:12:17;;;;;;;2.10;1.30;;;;;;;22.45;47.71;100965.97;6059741;28;20046;-68
2022/06/18 05:15:13;;;;;;;2.13;1.30;;;;;;;22.48;47.78;100963.66;6051450;28;20033;-68
2022/06/18 05:18:12;;;;;;;2.15;1.40;;;;;;;22.35;47.60;100971.84;6053476;28;20126;-67
2022/06/18 05:21:08;;;;;;;2.70;1.65;;;;;;;22.63;47.85;100970.66;6051958;28;20033;-68
2022/06/18 05:24:03;;;;;;;3.23;1.40;;;;;;;22.76;47.19;100974.13;6055011;28;20030;-67
2022/06/18 05:26:59;;;;;;;2.45;1.40;;;;;;;23.36;46.64;100969.84;6053184;28;20104;-67
2022/06/18 05:29:55;;;;;;;2.20;1.27;;;;;;;23.51;45.85;100973.06;6069514;28;20471;-67
2022/06/18 05:32:51;;;;;;;2.55;1.38;;;;;;;23.56;46.03;100967.78;6052175;28;20025;-68
2022/06/18 05:35:47;;;;;;;4.28;1.38;;;;;;;23.56;45.28;100965.09;6057799;28;20037;-67
2022/06/18 05:38:42;;;;;;;3.30;1.40;;;;;;;23.67;45.77;100961.63;6052902;28;20080;-68
2022/06/18 05:41:37;;;;;;;2.37;1.23;;;;;;;24.28;44.72;100963.41;6051918;28;20496;-68
2022/06/18 05:44:33;;;;;;;3.27;1.47;;;;;;;24.11;44.94;100956.97;6054077;28;20037;-66
2022/06/18 05:47:33;;;;;;;2.85;1.83;;;;;;;24.02;45.28;100963.75;6052211;28;20069;-67
2022/06/18 05:50:28;;;;;;;2.83;1.35;;;;;;;24.18;45.25;100957.72;6050983;28;20072;-67
2022/06/18 05:53:24;;;;;;;3.38;1.30;;;;;;;24.52;44.49;100958.88;6052117;28;20400;-68
2022/06/18 05:56:19;;;;;;;2.43;1.53;;;;;;;24.34;45.11;100956.25;6052555;28;20034;-68
2022/06/18 05:59:14;;;;;;;2.35;1.48;;;;;;;24.62;44.15;100940.19;6060903;28;20062;-68
2022/06/18 06:02:11;;;;;;;3.72;1.33;;;;;;;24.80;44.39;100946.38;6051371;28;20088;-64
2022/06/18 06:05:06;;;;;;;3.05;1.60;;;;;;;24.54;45.60;100954.88;6051518;28;20033;-65
2022/06/18 06:08:02;;;;;;;2.90;1.40;;;;;;;24.96;44.10;100961.16;6051267;28;20401;-68
2022/06/18 06:14:12;;;;;;;2.65;1.40;;;;;;;24.87;45.00;100961.75;6051918;28;20030;-65
2022/06/18 06:17:19;;;;;;;4.68;1.58;;;;;;;25.28;44.09;100964.34;6051064;28;20037;-66
2022/06/18 06:20:25;;;;;;;7.93;1.80;;;;;;;25.35;44.00;100965.91;6061740;28;20030;-67
2022/06/18 06:23:21;;;;;;;4.90;1.80;;;;;;;25.13;45.51;100964.00;6058389;28;20454;-67
2022/06/18 06:26:20;;;;;;;3.33;1.90;;;;;;;25.44;45.01;100955.47;6068156;28;20034;-67
2022/06/18 06:29:15;;;;;;;2.22;1.50;;;;;;;25.72;44.22;100950.16;6062929;28;20080;-67
2022/06/18 06:32:11;;;;;;;2.92;1.83;;;;;;;25.72;43.01;100950.16;6051061;28;20062;-67
2022/06/18 06:35:06;;;;;;;2.67;1.90;;;;;;;25.83;43.06;100949.31;6050067;28;20029;-67
2022/06/18 06:38:03;;;;;;;3.92;1.85;;;;;;;25.86;42.90;100929.81;6049719;28;20113;-67
2022/06/18 06:40:58;;;;;;;3.35;1.67;;;;;;;25.59;43.50;100939.56;6046954;28;20033;-67
2022/06/18 06:43:54;;;;;;;3.55;1.77;;;;;;;25.69;43.80;100936.22;6049317;28;20077;-67
2022/06/18 06:46:51;;;;;;;3.45;1.70;;;;;;;25.88;43.34;100930.41;6051046;28;20397;-67
2022/06/18 06:49:46;;;;;;;4.70;1.70;;;;;;;26.06;43.49;100942.16;6050779;28;20100;-67
2022/06/18 06:52:42;;;;;;;3.15;1.70;;;;;;;26.11;42.71;100939.53;6052819;28;20593;-67
2022/06/18 06:58:53;;;;;;;2.78;1.92;;;;;;;26.19;43.37;100939.19;6056152;28;20151;-68
2022/06/18 07:01:48;;;;;;;5.80;1.52;;;;;;;26.10;43.59;100936.00;6052911;28;20034;-65
2022/06/18 07:04:44;;;;;;;5.68;2.05;;;;;;;26.48;43.62;100927.22;6051661;28;20037;-68
2022/06/18 07:07:39;;;;;;;3.35;1.70;;;;;;;26.57;43.61;100933.91;6049717;28;20026;-68
2022/06/18 07:10:35;;;;;;;4.75;1.90;;;;;;;26.90;43.04;100935.84;6049197;28;20018;-68
2022/06/18 07:13:31;;;;;;;4.95;2.15;;;;;;;26.91;43.46;100921.16;6049763;28;20029;-67
2022/06/18 07:16:26;;;;;;;3.90;2.20;;;;;;;26.82;43.92;100934.38;6057074;28;20045;-67
2022/06/18 07:19:22;;;;;;;3.78;2.03;;;;;;;27.34;41.85;100929.44;6055550;28;20269;-67
2022/06/18 07:22:18;;;;;;;3.10;2.07;;;;;;;27.15;42.01;100934.34;6053016;28;20386;-67
2022/06/18 07:25:14;;;;;;;5.18;2.13;;;;;;;27.11;42.24;100933.19;6057603;28;20582;-67
2022/06/18 07:28:09;;;;;;;5.15;2.10;;;;;;;27.11;43.00;100922.31;6062572;28;20148;-68
2022/06/18 07:31:05;;;;;;;5.63;2.40;;;;;;;27.29;41.81;100917.66;6053236;28;20040;-66
2022/06/18 07:34:01;;;;;;;4.18;2.10;;;;;;;27.35;40.85;100919.38;6051055;28;20366;-67
2022/06/18 07:36:56;;;;;;;4.07;2.83;;;;;;;27.10;41.78;100928.81;6049547;28;20069;-67
2022/06/18 07:39:52;;;;;;;4.83;2.03;;;;;;;27.12;42.29;100928.59;6058762;28;20401;-66
2022/06/18 07:42:49;;;;;;;6.72;2.63;;;;;;;27.29;42.23;100934.00;6049038;28;20065;-67
2022/06/18 07:45:46;;;;;;;7.70;2.50;;;;;;;27.11;42.36;100922.31;6055419;28;20507;-67
2022/06/18 07:48:43;;;;;;;5.35;2.60;;;;;;;27.36;42.73;100927.31;6048344;28;20042;-67
2022/06/18 07:51:39;;;;;;;4.90;2.35;;;;;;;27.30;42.19;100913.84;6053248;28;20458;-66
2022/06/18 07:54:34;;;;;;;5.35;2.65;;;;;;;27.46;42.33;100919.28;6055211;28;20034;-67
2022/06/18 07:57:29;;;;;;;6.77;2.87;;;;;;;27.53;42.75;100921.84;6048704;28;20041;-67
2022/06/18 08:00:25;;;;;;;6.33;2.63;;;;;;;27.48;42.50;100914.41;6048484;28;20038;-68
2022/06/18 08:03:21;;;;;;;5.32;2.85;;;;;;;27.65;41.74;100911.63;6048467;28;20037;-66
2022/06/18 08:06:16;;;;;;;3.30;2.22;;;;;;;27.69;42.11;100915.50;6049412;28;20052;-66
2022/06/18 08:09:11;;;;;;;6.38;2.95;;;;;;;28.04;42.76;100896.88;6050670;28;20038;-67
2022/06/18 08:12:07;;;;;;;5.60;2.80;;;;;;;28.12;42.38;100918.22;6046560;28;21315;-67
2022/06/18 08:15:04;;;;;;;7.07;2.80;;;;;;;28.18;41.49;100897.28;6048259;28;20078;-64
2022/06/18 08:18:00;;;;;;;5.38;2.75;;;;;;;28.44;41.88;100901.91;6048653;28;20509;-65
2022/06/18 08:20:58;;;;;;;7.07;2.85;;;;;;;28.58;42.62;100896.84;6048093;28;20145;-67
2022/06/18 08:24:00;;;;;;;4.13;2.40;;;;;;;28.31;41.46;100896.88;6048661;28;20460;-67
2022/06/18 08:26:55;;;;;;;4.50;2.67;;;;;;;28.27;42.06;100902.00;6046341;28;20038;-67
2022/06/18 08:29:51;;;;;;;5.53;3.17;;;;;;;28.37;42.27;100900.47;6048574;28;20026;-67
2022/06/18 08:32:46;;;;;;;3.10;2.53;;;;;;;28.67;41.32;100895.31;6047336;28;20378;-67
2022/06/18 08:35:41;;;;;;;7.23;2.90;;;;;;;28.67;41.75;100889.84;6049097;28;20030;-65
2022/06/18 08:38:38;;;;;;;8.60;3.20;;;;;;;28.69;42.32;100888.50;6049898;28;20108;-65
2022/06/18 08:41:52;;;;;;;5.85;2.80;;;;;;;28.71;42.05;100894.53;6050003;28;20284;-67
2022/06/18 08:45:16;;;;;;;5.63;3.20;;;;;;;28.69;41.40;100879.50;6047088;28;20045;-67
2022/06/18 08:48:24;;;;;;;5.50;2.53;;;;;;;29.15;40.74;100883.34;6021746;28;20413;-65
2022/06/18 08:51:37;;;;;;;7.50;2.95;;;;;;;28.95;41.97;100892.22;6050668;28;20030;-66
2022/06/18 08:54:47;;;;;;;5.70;3.42;;;;;;;29.14;39.47;100898.91;6080709;28;20670;-67
2022/06/18 08:57:50;;;;;;;7.25;2.83;;;;;;;28.85;40.79;100897.63;6055845;28;20397;-68
2022/06/18 09:00:54;;;;;;;8.65;2.83;;;;;;;28.96;41.67;100902.09;6049133;28;20045;-67
2022/06/18 09:04:02;;;;;;;6.88;2.80;;;;;;;29.04;41.53;100898.03;6050285;28;20037;-67
2022/06/18 09:07:16;;;;;;;5.95;2.95;;;;;;;29.51;40.96;100904.38;6053626;28;20452;-67
2022/06/18 09:10:31;;;;;;;6.43;3.22;;;;;;;30.11;40.63;100889.28;6049893;28;20072;-67
2022/06/18 09:13:35;;;;;;;7.28;3.25;;;;;;;29.95;39.53;100891.16;6069652;28;20448;-67
2022/06/18 09:16:35;;;;;;;5.35;3.25;;;;;;;29.70;40.32;100891.03;6051919;28;20038;-67
2022/06/18 09:19:31;;;;;;;9.75;3.72;;;;;;;29.75;39.76;100893.78;6051091;28;20061;-67
2022/06/18 09:22:27;;;;;;;7.32;3.50;;;;;;;29.65;40.98;100888.28;6050252;28;20165;-67
2022/06/18 09:25:25;;;;;;;7.23;3.20;;;;;;;29.75;40.47;100888.31;6050121;28;20107;-66
2022/06/18 09:28:37;;;;;;;6.68;3.42;;;;;;;29.90;39.93;100885.66;6050872;28;20327;-67
2022/06/18 09:31:40;;;;;;;6.85;3.65;;;;;;;29.71;39.99;100900.88;6049864;28;20080;-66
2022/06/18 09:34:41;;;;;;;6.60;3.10;;;;;;;29.35;41.00;100895.25;6081014;28;20421;-66
2022/06/18 09:38:02;;;;;;;12.88;3.30;;;;;;;29.61;41.43;100896.19;6046260;28;20041;-66
2022/06/18 09:41:00;;;;;;;8.77;3.63;;;;;;;29.83;41.69;100885.09;6045650;28;20054;-67
2022/06/18 09:44:00;;;;;;;6.45;3.28;;;;;;;30.00;39.54;100886.50;6049689;28;20117;-67
2022/06/18 09:47:03;;;;;;;7.10;3.47;;;;;;;30.24;39.85;100875.88;6083804;28;20117;-67
2022/06/18 09:49:59;;;;;;;5.72;3.25;;;;;;;30.27;39.18;100882.72;6047657;28;20029;-67
2022/06/18 09:53:06;;;;;;;8.73;3.70;;;;;;;30.24;40.44;100886.84;6049283;28;20485;-67
2022/06/18 09:56:11;;;;;;;5.80;3.60;;;;;;;30.53;40.53;100884.41;6065480;28;20492;-67
2022/06/18 09:59:16;;;;;;;8.82;3.67;;;;;;;30.83;40.20;100883.56;6080759;28;20057;-67
2022/06/18 10:02:31;;;;;;;6.20;3.25;;;;;;;31.11;38.34;100881.13;6048695;28;20128;-67
2022/06/18 10:08:48;;;;;;;8.35;3.50;;;;;;;31.18;37.80;100876.16;6048299;28;20466;-67
2022/06/18 10:11:44;;;;;;;7.93;3.53;;;;;;;31.52;38.72;100879.09;6048870;28;20022;-67
2022/06/18 10:14:39;;;;;;;6.82;3.70;;;;;;;31.55;37.89;100873.06;6064300;28;20033;-68
2022/06/18 10:17:43;;;;;;;6.33;3.90;;;;;;;31.60;38.13;100870.28;6050227;28;20076;-68
2022/06/18 10:20:58;;;;;;;7.50;3.50;;;;;;;31.54;37.79;100857.69;6049788;28;20513;-67
2022/06/18 10:24:13;;;;;;;8.75;3.40;;;;;;;31.84;38.16;100864.94;6080786;28;20037;-67
2022/06/18 10:27:32;;;;;;;6.80;3.92;;;;;;;31.21;37.57;100870.13;6062732;28;20042;-68
2022/06/18 10:30:49;;;;;;;10.05;3.70;;;;;;;31.34;38.30;100868.69;6056430;28;20060;-68
2022/06/18 10:33:58;;;;;;;10.18;3.80;;;;;;;31.63;38.30;100855.19;6063876;28;20091;-67
2022/06/18 10:37:21;;;;;;;8.82;4.25;;;;;;;31.41;37.67;100850.03;6048702;28;20041;-68
2022/06/18 10:40:58;;;;;;;7.45;4.05;;;;;;;31.48;36.80;100850.56;6059149;28;20021;-68
2022/06/18 10:44:12;;;;;;;;;;;;;;;31.62;38.54;100859.00;6049103;28;20042;-68
2022/06/18 10:47:11;;;;;;;6.95;3.90;;;;;;;32.19;36.21;100841.94;6047586;28;19913;-67
2022/06/18 10:50:13;;;;;;;9.25;3.15;;;;;;;32.42;36.51;100838.50;6049106;28;21939;-67
2022/06/18 10:53:13;;;;;;;5.53;3.28;;;;;;;32.51;36.14;100825.75;6050794;28;20029;-68
2022/06/18 10:56:24;;;;;;;9.95;4.22;;;;;;;32.68;35.86;100833.59;6059796;28;20041;-67
2022/06/18 10:59:39;;;;;;;12.80;3.97;;;;;;;32.79;35.62;100835.97;6050774;28;20112;-68
2022/06/18 11:02:36;;;;;;;9.73;3.10;;;;;;;32.72;34.12;100835.47;6047745;28;20391;-68
2022/06/18 11:05:33;;;;;;;10.25;3.85;;;;;;;32.70;35.96;100826.72;6048582;28;20038;-67
2022/06/18 11:08:31;;;;;;;8.90;3.95;;;;;;;32.73;34.49;100841.78;6062261;28;20515;-68
2022/06/18 11:11:29;;;;;;;9.90;3.63;;;;;;;32.44;34.10;100828.03;6079261;28;20034;-67
2022/06/18 11:14:25;;;;;;;8.40;3.97;;;;;;;32.57;34.86;100824.63;6048261;28;20033;-66
2022/06/18 11:17:26;;;;;;;9.85;3.92;;;;;;;32.45;34.30;100826.94;6048465;28;20045;-68
2022/06/18 11:20:28;;;;;;;4.93;3.70;;;;;;;32.34;34.66;100817.13;6048022;28;20041;-68
2022/06/18 11:23:23;;;;;;;7.30;4.18;;;;;;;32.09;35.76;100828.31;6048386;28;20126;-68
2022/06/18 11:26:23;;;;;;;10.18;4.15;;;;;;;32.49;35.54;100824.41;6063613;28;20386;-66
2022/06/18 11:29:26;;;;;;;8.30;3.10;;;;;;;32.57;35.74;100821.91;6048580;28;20060;-65
2022/06/18 11:32:23;;;;;;;11.35;3.83;;;;;;;32.85;34.39;100829.31;6045217;28;20390;-66
2022/06/18 11:35:23;;;;;;;11.40;3.78;;;;;;;32.53;34.06;100830.97;6066051;28;20049;-68
2022/06/18 11:38:32;;;;;;;9.07;3.75;;;;;;;32.17;34.59;100833.19;6062738;28;20069;-68
2022/06/18 11:41:38;;;;;;;9.65;3.75;;;;;;;32.20;34.51;100829.88;6049517;28;20088;-68
2022/06/18 11:44:43;;;;;;;11.57;3.10;;;;;;;32.04;35.50;100839.34;6046824;28;20421;-68
2022/06/18 11:47:45;;;;;;;14.00;4.05;;;;;;;31.89;34.70;100826.50;6045473;28;20104;-66
2022/06/18 11:50:55;;;;;;;12.63;4.30;;;;;;;31.76;35.90;100827.94;6063761;28;20041;-66
2022/06/18 11:53:58;;;;;;;17.58;3.85;;;;;;;31.71;35.32;100836.22;6046053;28;20160;-66
2022/06/18 11:57:11;;;;;;;10.68;3.38;;;;;;;31.79;35.14;100832.03;6048269;28;20385;-68
2022/06/18 12:00:22;;;;;;;8.98;3.25;;;;;;;31.99;35.91;100831.91;6048786;28;20037;-68
2022/06/18 12:03:51;;;;;;;13.00;4.18;;;;;;;31.88;35.19;100829.53;6065691;28;20470;-68
2022/06/18 12:07:19;;;;;;;13.15;3.92;;;;;;;31.91;35.27;100818.00;6065266;28;20093;-68
2022/06/18 12:10:17;;;;;;;12.35;3.92;;;;;;;32.14;35.60;100817.28;6031590;28;20030;-68
2022/06/18 12:13:23;;;;;;;12.85;4.43;;;;;;;32.22;34.92;100813.94;6052352;28;20058;-68
2022/06/18 12:16:23;;;;;;;10.43;3.63;;;;;;;32.35;34.59;100816.00;6077044;28;20112;-68
2022/06/18 12:19:34;;;;;;;7.47;3.53;;;;;;;32.61;34.58;100805.66;6075145;28;20042;-68
2022/06/18 12:22:36;;;;;;;10.13;3.83;;;;;;;32.41;34.69;100803.88;6046493;28;20034;-66
2022/06/18 12:25:47;;;;;;;18.15;3.95;;;;;;;32.46;34.97;100798.34;6058557;28;20398;-68
2022/06/18 12:28:55;;;;;;;11.30;4.07;;;;;;;32.53;35.14;100793.38;6055144;28;20125;-68
2022/06/18 12:32:09;;;;;;;12.65;3.90;;;;;;;32.34;34.45;100808.91;6060929;28;20121;-68
2022/06/18 12:35:29;;;;;;;9.52;4.13;;;;;;;32.31;34.69;100796.56;6057188;28;20041;-68
2022/06/18 12:38:30;;;;;;;12.90;3.90;;;;;;;32.38;35.19;100785.22;6056254;28;20034;-67
2022/06/18 12:41:46;;;;;;;9.38;4.35;;;;;;;32.54;34.24;100783.19;6052867;28;20035;-67
2022/06/18 12:44:58;;;;;;;9.15;5.07;;;;;;;32.44;34.62;100775.84;6068190;28;20105;-67
2022/06/18 12:48:08;;;;;;;14.07;4.88;;;;;;;32.55;34.53;100782.91;6085544;28;20034;-66
2022/06/18 12:51:29;;;;;;;8.45;4.50;;;;;;;32.42;34.23;100785.47;6043309;28;20608;-67
2022/06/18 12:54:53;;;;;;;11.00;4.18;;;;;;;32.51;34.57;100781.81;6051314;28;20045;-66
2022/06/18 12:57:52;;;;;;;9.70;4.80;;;;;;;32.69;34.29;100780.31;6057837;28;20157;-66
2022/06/18 13:00:53;;;;;;;11.75;3.63;;;;;;;32.84;33.21;100772.69;6056680;28;20462;-67
2022/06/18 13:04:13;;;;;;;9.60;4.10;;;;;;;32.92;33.10;100755.56;6049881;28;20068;-67
2022/06/18 13:07:43;;;;;;;10.20;4.13;;;;;;;32.98;33.18;100757.16;6041327;28;20091;-67
2022/06/18 13:10:48;;;;;;;13.77;4.25;;;;;;;32.85;33.77;100757.84;6068076;28;20045;-66
2022/06/18 13:14:17;;;;;;;15.07;4.35;;;;;;;33.00;34.03;100748.59;6068106;28;20029;-66
2022/06/18 13:17:17;;;;;;;11.07;4.60;;;;;;;33.22;32.77;100761.81;6036092;28;20099;-66
2022/06/18 13:20:20;;;;;;;11.95;4.20;;;;;;;33.35;33.56;100750.91;6047270;28;20030;-67
2022/06/18 13:30:40;;;;;;;10.93;3.67;;;;;;;33.51;32.87;100754.28;6035090;28;20061;-66
2022/06/18 13:33:40;;;;;;;14.68;4.20;;;;;;;34.07;30.88;100740.53;6065397;28;20034;-67
2022/06/18 13:37:02;;;;;;;9.63;3.63;;;;;;;34.42;31.57;100747.34;6047509;28;20040;-67
2022/06/18 13:40:13;;;;;;;11.25;3.72;;;;;;;34.58;32.00;100752.28;6047933;28;20421;-67
2022/06/18 13:43:46;;;;;;;8.57;4.03;;;;;;;34.31;31.77;100734.84;6051130;28;20030;-67
2022/06/18 13:46:51;;;;;;;13.55;4.43;;;;;;;34.01;32.06;100748.00;6049808;28;20037;-66
2022/06/18 13:50:08;;;;;;;10.20;4.15;;;;;;;34.08;32.01;100737.44;6054974;28;20267;-67
2022/06/18 13:53:04;;;;;;;12.45;4.40;;;;;;;34.08;32.44;100726.44;6070894;28;20084;-66
2022/06/18 13:56:21;;;;;;;8.82;4.43;;;;;;;34.23;32.19;100721.78;6050636;28;20057;-67
2022/06/18 13:59:19;;;;;;;12.73;4.53;;;;;;;33.97;32.22;100730.44;6051927;28;20041;-67
2022/06/18 14:02:33;;;;;;;11.85;4.10;;;;;;;34.31;31.55;100740.38;6051597;28;20034;-67
2022/06/18 14:05:46;;;;;;;10.27;4.40;;;;;;;34.18;32.09;100728.22;6038847;28;20031;-67
2022/06/18 14:08:46;;;;;;;9.43;4.10;;;;;;;34.44;31.48;100723.88;6048458;28;20092;-66
2022/06/18 14:11:45;;;;;;;11.43;4.90;;;;;;;34.85;29.88;100728.59;6048168;28;20064;-67
2022/06/18 14:14:41;;;;;;;12.02;4.20;;;;;;;35.06;29.88;100724.34;6065341;28;20038;-67
2022/06/18 14:17:42;;;;;;;11.13;5.00;;;;;;;35.17;31.06;100726.56;6049201;28;20033;-67